createdAt,value
2019-04-20T00:02:25.585Z,102291.83
2019-04-20T00:04:57.095Z,102289.46
2019-04-20T00:07:32.365Z,102287.70
2019-04-20T00:10:08.752Z,102287.34
2019-04-20T00:15:36.747Z,102286.60
2019-04-20T00:18:10.521Z,102281.67
2019-04-20T00:20:56.625Z,102284.89
2019-04-20T00:23:34.803Z,102280.17
2019-04-20T00:26:26.623Z,102273.60
2019-04-20T00:29:07.534Z,102281.32
2019-04-20T00:31:42.108Z,102278.30
2019-04-20T00:34:06.650Z,102272.01
2019-04-20T00:36:33.263Z,102274.16
2019-04-20T00:39:09.303Z,102271.50
2019-04-20T00:41:44.095Z,102275.37
2019-04-20T00:44:17.156Z,102275.37
2019-04-20T00:46:58.753Z,102262.33
2019-04-20T00:49:30.438Z,102267.06
2019-04-20T00:52:18.768Z,102267.06
2019-04-20T00:54:24.279Z,102257.27
2019-04-20T00:57:05.747Z,102266.71
2019-04-20T00:59:42.448Z,102262.59
2019-04-20T01:02:19.330Z,102266.16
2019-04-20T01:04:55.022Z,102262.69
2019-04-20T01:07:28.698Z,102268.05
2019-04-20T01:10:00.478Z,102274.61
2019-04-20T01:12:35.631Z,102267.52
2019-04-20T01:15:11.105Z,102271.59
2019-04-20T01:17:41.689Z,102272.92
2019-04-20T01:20:12.593Z,102263.16
2019-04-20T01:22:51.400Z,102270.41
2019-04-20T01:25:22.097Z,102272.39
2019-04-20T01:28:09.095Z,102270.33
2019-04-20T01:30:30.195Z,102273.20
2019-04-20T01:33:12.495Z,102273.20
2019-04-20T01:35:44.101Z,102275.13
2019-04-20T01:38:25.044Z,102276.36
2019-04-20T01:40:40.242Z,102273.63
2019-04-20T01:43:12.075Z,102273.52
2019-04-20T01:45:45.761Z,102270.84
2019-04-20T01:48:26.013Z,102280.50
2019-04-20T01:51:02.396Z,102285.03
2019-04-20T01:53:44.149Z,102283.70
2019-04-20T01:56:19.540Z,102289.76
2019-04-20T01:59:29.501Z,102284.89
2019-04-20T02:02:13.171Z,102279.27
2019-04-20T02:04:49.344Z,102279.88
2019-04-20T02:07:30.546Z,102289.59
2019-04-20T02:09:58.275Z,102286.06
2019-04-20T02:12:32.692Z,102286.91
2019-04-20T02:15:04.747Z,102284.14
2019-04-20T02:17:43.541Z,102290.39
2019-04-20T02:20:35.982Z,102290.39
2019-04-20T02:23:01.932Z,102294.69
2019-04-20T02:25:18.547Z,102282.77
2019-04-20T02:28:13.824Z,102287.64
2019-04-20T02:31:06.373Z,102281.12
2019-04-20T02:33:50.545Z,102286.60
2019-04-20T02:36:24.742Z,102287.33
2019-04-20T02:41:51.023Z,102283.03
2019-04-20T02:47:07.912Z,102283.87
2019-04-20T02:52:33.491Z,102282.34
2019-04-20T02:54:45.113Z,102282.65
2019-04-20T02:57:35.969Z,102278.70
2019-04-20T03:00:01.194Z,102282.80
2019-04-20T03:02:06.348Z,102281.19
2019-04-20T03:04:35.045Z,102282.91
2019-04-20T03:07:15.389Z,102286.90
2019-04-20T03:09:50.157Z,102285.21
2019-04-20T03:12:34.448Z,102279.22
2019-04-20T03:14:55.272Z,102288.30
2019-04-20T03:17:39.140Z,102285.98
2019-04-20T03:19:58.459Z,102288.48
2019-04-20T03:23:06.789Z,102287.56
2019-04-20T03:25:17.922Z,102289.47
2019-04-20T03:27:59.293Z,102282.23
2019-04-20T03:33:51.470Z,102279.34
2019-04-20T03:36:09.352Z,102289.51
2019-04-20T03:38:34.830Z,102292.41
2019-04-20T03:40:59.460Z,102289.12
2019-04-20T03:43:22.743Z,102293.81
2019-04-20T03:46:01.450Z,102293.34
2019-04-20T03:48:46.855Z,102288.17
2019-04-20T03:51:30.162Z,102292.78
2019-04-20T03:54:20.209Z,102286.78
2019-04-20T03:57:12.439Z,102293.92
2019-04-20T03:59:51.164Z,102291.37
2019-04-20T04:02:37.525Z,102292.75
2019-04-20T04:05:20.403Z,102298.59
2019-04-20T04:07:40.418Z,102290.98
2019-04-20T04:10:23.219Z,102297.77
2019-04-20T04:13:16.795Z,102293.19
2019-04-20T04:15:57.541Z,102298.05
2019-04-20T04:18:31.822Z,102295.97
2019-04-20T04:21:03.571Z,102301.39
2019-04-20T04:23:48.912Z,102304.98
2019-04-20T04:26:21.937Z,102297.15
2019-04-20T04:28:56.215Z,102302.11
2019-04-20T04:31:33.266Z,102306.75
2019-04-20T04:34:04.828Z,102303.84
2019-04-20T04:36:36.063Z,102303.36
2019-04-20T04:39:15.417Z,102310.39
2019-04-20T04:41:57.921Z,102311.85
2019-04-20T04:44:17.708Z,102313.49
2019-04-20T04:46:42.628Z,102315.23
2019-04-20T04:49:24.126Z,102325.97
2019-04-20T04:51:58.474Z,102321.04
2019-04-20T04:54:30.487Z,102327.00
2019-04-20T04:56:58.620Z,102330.80
2019-04-20T04:59:31.696Z,102336.28
2019-04-20T05:02:03.576Z,102339.02
2019-04-20T05:05:25.430Z,102343.34
2019-04-20T05:07:51.473Z,102338.59
2019-04-20T05:10:15.908Z,102345.28
2019-04-20T05:12:48.178Z,102347.98
2019-04-20T05:15:34.875Z,102348.14
2019-04-20T05:18:16.190Z,102345.98
2019-04-20T05:20:53.414Z,102354.02
2019-04-20T05:24:04.486Z,102353.70
2019-04-20T05:26:55.426Z,102351.83
2019-04-20T05:29:14.464Z,102351.34
2019-04-20T05:31:49.064Z,102349.48
2019-04-20T05:34:40.027Z,102348.87
2019-04-20T05:37:17.595Z,102346.56
2019-04-20T05:39:44.814Z,102353.14
2019-04-20T05:42:28.474Z,102346.19
2019-04-20T05:45:07.637Z,102349.27
2019-04-20T05:47:42.893Z,102349.12
2019-04-20T05:50:15.582Z,102350.03
2019-04-20T05:53:21.305Z,102349.60
2019-04-20T05:55:33.132Z,102354.38
2019-04-20T05:58:14.518Z,102351.83
2019-04-20T06:00:51.208Z,102353.22
2019-04-20T06:03:10.835Z,102351.31
2019-04-20T06:05:52.587Z,102353.50
2019-04-20T06:08:29.842Z,102354.14
2019-04-20T06:10:49.388Z,102353.16
2019-04-20T06:13:27.781Z,102357.54
2019-04-20T06:16:12.885Z,102354.05
2019-04-20T06:19:09.577Z,102361.41
2019-04-20T06:21:37.656Z,102361.34
2019-04-20T06:24:27.835Z,102363.92
2019-04-20T06:26:59.469Z,102367.75
2019-04-20T06:29:21.941Z,102369.94
2019-04-20T06:32:05.162Z,102374.64
2019-04-20T06:37:01.005Z,102369.83
2019-04-20T06:42:14.868Z,102373.23
2019-04-20T06:44:46.437Z,102373.83
2019-04-20T06:47:18.904Z,102375.41
2019-04-20T06:49:56.500Z,102378.91
2019-04-20T06:52:45.312Z,102378.84
2019-04-20T06:55:19.789Z,102374.81
2019-04-20T06:57:54.765Z,102371.70
2019-04-20T07:00:22.859Z,102375.72
2019-04-20T07:03:01.825Z,102377.65
2019-04-20T07:05:43.732Z,102378.08
2019-04-20T07:08:37.327Z,102378.57
2019-04-20T07:10:58.343Z,102375.63
2019-04-20T07:13:18.898Z,102377.73
2019-04-20T07:16:18.475Z,102367.14
2019-04-20T07:19:06.206Z,102374.73
2019-04-20T07:22:10.578Z,102365.91
2019-04-20T07:24:35.071Z,102371.18
2019-04-20T07:27:03.110Z,102375.73
2019-04-20T07:29:40.787Z,102370.23
2019-04-20T07:32:07.586Z,102376.20
2019-04-20T07:34:41.376Z,102378.31
2019-04-20T07:39:58.916Z,102380.64
2019-04-20T07:42:37.714Z,102379.80
2019-04-20T07:45:13.505Z,102376.14
2019-04-20T07:47:46.641Z,102377.10
2019-04-20T07:50:12.052Z,102379.22
2019-04-20T07:52:39.638Z,102378.00
2019-04-20T07:57:52.793Z,102379.60
2019-04-20T08:00:44.820Z,102375.77
2019-04-20T08:03:33.699Z,102370.98
2019-04-20T08:06:15.659Z,102370.48
2019-04-20T08:08:55.877Z,102369.10
2019-04-20T08:11:28.778Z,102359.18
2019-04-20T08:14:13.339Z,102367.95
2019-04-20T08:16:47.106Z,102360.67
2019-04-20T08:19:08.201Z,102360.96
2019-04-20T08:21:48.449Z,102362.48
2019-04-20T08:24:17.091Z,102368.02
2019-04-20T08:26:38.917Z,102368.28
2019-04-20T08:29:41.688Z,102364.80
2019-04-20T08:32:31.240Z,102370.75
2019-04-20T08:35:05.587Z,102368.89
2019-04-20T08:37:40.060Z,102374.14
2019-04-20T08:40:12.066Z,102371.73
2019-04-20T08:42:59.693Z,102362.91
2019-04-20T08:45:24.108Z,102363.58
2019-04-20T08:47:56.840Z,102365.80
2019-04-20T08:50:29.610Z,102368.88
2019-04-20T08:53:20.481Z,102364.19
2019-04-20T08:55:33.424Z,102363.97
2019-04-20T08:57:51.488Z,102360.92
2019-04-20T09:00:30.863Z,102361.37
2019-04-20T09:03:04.760Z,102361.55
2019-04-20T09:05:42.422Z,102368.19
2019-04-20T09:08:13.535Z,102352.48
2019-04-20T09:10:59.820Z,102365.08
2019-04-20T09:13:24.590Z,102362.96
2019-04-20T09:15:49.691Z,102359.19
2019-04-20T09:18:39.080Z,102364.91
2019-04-20T09:21:15.149Z,102361.00
2019-04-20T09:23:57.707Z,102358.43
2019-04-20T09:26:32.360Z,102356.60
2019-04-20T09:29:04.079Z,102352.37
2019-04-20T09:31:43.550Z,102354.59
2019-04-20T09:34:51.198Z,102350.86
2019-04-20T09:37:20.361Z,102355.22
2019-04-20T09:39:53.315Z,102350.72
2019-04-20T09:42:31.838Z,102349.02
2019-04-20T09:45:06.261Z,102348.55
2019-04-20T09:47:46.482Z,102345.64
2019-04-20T09:50:32.498Z,102339.16
2019-04-20T09:53:03.200Z,102345.22
2019-04-20T09:55:33.771Z,102340.84
2019-04-20T09:58:11.298Z,102340.36
2019-04-20T10:00:53.888Z,102337.30
2019-04-20T10:03:16.611Z,102336.04
2019-04-20T10:05:49.651Z,102339.31
2019-04-20T10:08:21.844Z,102329.38
2019-04-20T10:10:54.357Z,102328.30
2019-04-20T10:13:27.415Z,102329.74
2019-04-20T10:15:59.735Z,102321.31
2019-04-20T10:18:41.335Z,102315.92
2019-04-20T10:21:09.679Z,102315.36
2019-04-20T10:23:42.827Z,102319.05
2019-04-20T10:26:14.439Z,102309.11
2019-04-20T10:28:47.708Z,102317.53
2019-04-20T10:31:18.371Z,102311.36
2019-04-20T10:33:53.520Z,102308.41
2019-04-20T10:36:43.717Z,102308.78
2019-04-20T10:39:18.336Z,102311.98
2019-04-20T10:41:54.323Z,102298.36
2019-04-20T10:44:23.068Z,102299.44
2019-04-20T10:46:54.669Z,102300.88
2019-04-20T10:49:29.144Z,102298.16
2019-04-20T10:52:00.404Z,102295.02
2019-04-20T10:54:32.347Z,102300.59
2019-04-20T10:57:04.133Z,102294.83
2019-04-20T10:59:35.602Z,102292.56
2019-04-20T11:02:07.892Z,102291.11
2019-04-20T11:04:40.912Z,102288.26
2019-04-20T11:07:12.495Z,102294.60
2019-04-20T11:09:43.109Z,102291.53
2019-04-20T11:12:14.604Z,102283.27
2019-04-20T11:14:50.249Z,102287.71
2019-04-20T11:17:22.407Z,102274.08
2019-04-20T11:19:59.240Z,102278.36
2019-04-20T11:22:30.770Z,102272.32
2019-04-20T11:25:04.285Z,102269.54
2019-04-20T11:27:36.364Z,102267.55
2019-04-20T11:30:09.945Z,102272.23
2019-04-20T11:32:44.308Z,102264.98
2019-04-20T11:35:25.431Z,102259.08
2019-04-20T11:37:51.334Z,102255.82
2019-04-20T11:40:23.312Z,102250.34
2019-04-20T11:42:55.381Z,102244.16
2019-04-20T11:45:28.735Z,102244.77
2019-04-20T11:47:59.135Z,102237.61
2019-04-20T11:50:33.683Z,102234.71
2019-04-20T11:53:03.888Z,102232.70
2019-04-20T11:55:36.622Z,102221.33
2019-04-20T11:58:08.349Z,102220.07
2019-04-20T12:00:53.898Z,102221.50
2019-04-20T12:03:47.879Z,102217.80
2019-04-20T12:06:08.672Z,102213.64
2019-04-20T12:08:41.905Z,102213.44
2019-04-20T12:11:26.528Z,102207.98
2019-04-20T12:13:46.849Z,102201.23
2019-04-20T12:16:19.365Z,102202.05
2019-04-20T12:18:52.511Z,102194.83
2019-04-20T12:21:26.499Z,102201.92
2019-04-20T12:24:02.396Z,102201.77
2019-04-20T12:26:56.546Z,102189.87
2019-04-20T12:29:27.925Z,102187.23
2019-04-20T12:32:02.332Z,102190.85
2019-04-20T12:34:33.071Z,102191.87
2019-04-20T12:37:05.100Z,102187.66
2019-04-20T12:39:37.334Z,102191.42
2019-04-20T12:42:10.084Z,102179.80
2019-04-20T12:44:42.147Z,102180.25
2019-04-20T12:47:14.806Z,102181.13
2019-04-20T12:49:45.460Z,102181.22
2019-04-20T12:52:19.160Z,102169.77
2019-04-20T12:54:52.540Z,102172.73
2019-04-20T12:57:24.705Z,102170.97
2019-04-20T12:59:55.039Z,102171.78
2019-04-20T13:02:27.250Z,102167.73
2019-04-20T13:04:57.751Z,102163.28
2019-04-20T13:07:40.564Z,102167.69
2019-04-20T13:10:05.806Z,102160.77
2019-04-20T13:12:58.512Z,102158.31
2019-04-20T13:16:00.525Z,102154.91
2019-04-20T13:18:41.221Z,102149.59
2019-04-20T13:21:13.396Z,102148.33
2019-04-20T13:23:45.233Z,102144.92
2019-04-20T13:26:17.369Z,102141.34
2019-04-20T13:28:50.893Z,102147.69
2019-04-20T13:31:22.161Z,102140.75
2019-04-20T13:33:52.859Z,102131.69
2019-04-20T13:36:24.188Z,102128.18
2019-04-20T13:38:59.978Z,102135.66
2019-04-20T13:41:31.705Z,102128.84
2019-04-20T13:44:04.790Z,102125.35
2019-04-20T13:46:36.719Z,102122.58
2019-04-20T13:49:11.154Z,102119.49
2019-04-20T13:51:42.190Z,102116.57
2019-04-20T13:54:20.549Z,102122.34
2019-04-20T13:56:50.037Z,102119.91
2019-04-20T13:59:41.929Z,102117.72
2019-04-20T14:02:30.913Z,102115.79
2019-04-20T14:05:04.637Z,102111.98
2019-04-20T14:07:37.905Z,102117.64
2019-04-20T14:10:09.250Z,102113.78
2019-04-20T14:12:53.369Z,102117.43
2019-04-20T14:15:13.253Z,102124.80
2019-04-20T14:17:44.848Z,102120.83
2019-04-20T14:20:20.179Z,102112.91
2019-04-20T14:22:49.824Z,102104.30
2019-04-20T14:25:21.338Z,102101.91
2019-04-20T14:27:52.932Z,102092.97
2019-04-20T14:30:24.806Z,102099.89
2019-04-20T14:32:56.799Z,102088.91
2019-04-20T14:35:29.251Z,102088.52
2019-04-20T14:38:01.767Z,102088.18
2019-04-20T14:40:32.526Z,102086.58
2019-04-20T14:43:03.431Z,102086.53
2019-04-20T14:45:34.390Z,102081.43
2019-04-20T14:48:05.838Z,102062.11
2019-04-20T14:50:38.813Z,102062.09
2019-04-20T14:53:09.864Z,102053.04
2019-04-20T14:55:43.766Z,102042.27
2019-04-20T14:58:37.910Z,102038.83
2019-04-20T15:01:24.703Z,102037.09
2019-04-20T15:03:59.862Z,102038.43
2019-04-20T15:06:29.747Z,102033.85
2019-04-20T15:09:06.453Z,102029.93
2019-04-20T15:11:41.736Z,102019.88
2019-04-20T15:14:14.826Z,102025.20
2019-04-20T15:16:46.778Z,102016.45
2019-04-20T15:19:31.899Z,102009.20
2019-04-20T15:22:05.517Z,102012.10
2019-04-20T15:24:37.701Z,102010.23
2019-04-20T15:27:10.249Z,102005.98
2019-04-20T15:29:44.278Z,101999.71
2019-04-20T15:32:18.723Z,101995.95
2019-04-20T15:34:50.878Z,101991.55
2019-04-20T15:37:23.420Z,101986.94
2019-04-20T15:39:54.937Z,101976.23
2019-04-20T15:42:33.445Z,101974.39
2019-04-20T15:45:07.570Z,101973.30
2019-04-20T15:47:50.075Z,101967.48
2019-04-20T15:50:22.605Z,101961.55
2019-04-20T15:53:02.658Z,101949.38
2019-04-20T15:55:37.933Z,101947.32
2019-04-20T15:58:12.452Z,101951.87
2019-04-20T16:00:46.676Z,101944.20
2019-04-20T16:03:29.662Z,101950.67
2019-04-20T16:06:03.429Z,101945.61
2019-04-20T16:08:38.934Z,101945.59
2019-04-20T16:11:13.322Z,101945.34
2019-04-20T16:13:50.015Z,101939.42
2019-04-20T16:16:21.548Z,101932.59
2019-04-20T16:18:55.196Z,101922.98
2019-04-20T16:21:33.856Z,101926.41
2019-04-20T16:24:15.151Z,101918.56
2019-04-20T16:27:27.704Z,101924.12
2019-04-20T16:30:05.506Z,101922.95
2019-04-20T16:32:36.826Z,101921.50
2019-04-20T16:35:12.483Z,101925.72
2019-04-20T16:37:44.663Z,101920.70
2019-04-20T16:40:17.684Z,101917.38
2019-04-20T16:42:52.148Z,101914.64
2019-04-20T16:45:23.406Z,101920.30
2019-04-20T16:48:00.469Z,101917.22
2019-04-20T16:50:35.126Z,101918.27
2019-04-20T16:53:10.686Z,101916.62
2019-04-20T16:55:45.129Z,101911.13
2019-04-20T16:58:18.265Z,101914.96
2019-04-20T17:00:50.093Z,101914.65
2019-04-20T17:03:27.882Z,101916.03
2019-04-20T17:05:56.146Z,101910.48
2019-04-20T17:08:29.214Z,101908.58
2019-04-20T17:11:01.834Z,101909.36
2019-04-20T17:13:43.124Z,101911.95
2019-04-20T17:16:10.285Z,101909.83
2019-04-20T17:18:41.442Z,101904.50
2019-04-20T17:21:16.595Z,101908.92
2019-04-20T17:23:47.321Z,101911.30
2019-04-20T17:26:32.767Z,101910.86
2019-04-20T17:29:12.169Z,101909.66
2019-04-20T17:31:58.556Z,101910.62
2019-04-20T17:34:44.000Z,101913.66
2019-04-20T17:37:04.551Z,101918.09
2019-04-20T17:40:01.732Z,101916.72
2019-04-20T17:42:26.447Z,101909.59
2019-04-20T17:44:53.038Z,101910.66
2019-04-20T17:47:41.803Z,101907.13
2019-04-20T17:50:10.871Z,101906.48
2019-04-20T17:52:49.606Z,101911.40
2019-04-20T17:55:24.047Z,101919.90
2019-04-20T17:57:43.942Z,101914.04
2019-04-20T18:00:22.510Z,101914.42
2019-04-20T18:03:12.351Z,101917.34
2019-04-20T18:06:01.147Z,101911.61
2019-04-20T18:08:35.610Z,101915.30
2019-04-20T18:11:02.055Z,101921.80
2019-04-20T18:13:30.309Z,101917.77
2019-04-20T18:16:22.427Z,101914.95
2019-04-20T18:19:00.266Z,101919.23
2019-04-20T18:21:30.733Z,101914.36
2019-04-20T18:24:05.226Z,101913.33
2019-04-20T18:26:52.062Z,101911.84
2019-04-20T18:29:32.520Z,101905.23
2019-04-20T18:32:01.869Z,101914.27
2019-04-20T18:34:58.402Z,101908.68
2019-04-20T18:37:27.353Z,101914.91
2019-04-20T18:40:06.165Z,101911.61
2019-04-20T18:42:38.863Z,101914.00
2019-04-20T18:45:26.713Z,101912.49
2019-04-20T18:48:06.319Z,101911.69
2019-04-20T18:50:30.536Z,101912.64
2019-04-20T18:52:57.930Z,101920.17
2019-04-20T18:55:40.698Z,101915.56
2019-04-20T18:58:01.532Z,101908.10
2019-04-20T19:00:44.484Z,101915.54
2019-04-20T19:03:20.497Z,101917.89
2019-04-20T19:05:51.407Z,101914.40
2019-04-20T19:08:33.769Z,101916.63
2019-04-20T19:11:04.097Z,101919.25
2019-04-20T19:13:47.479Z,101921.61
2019-04-20T19:16:53.882Z,101912.20
2019-04-20T19:19:24.540Z,101918.72
2019-04-20T19:22:08.012Z,101926.15
2019-04-20T19:24:43.636Z,101930.81
2019-04-20T19:27:17.090Z,101933.25
2019-04-20T19:29:56.510Z,101935.47
2019-04-20T19:32:38.272Z,101930.73
2019-04-20T19:35:01.619Z,101932.97
2019-04-20T19:37:34.596Z,101935.55
2019-04-20T19:40:10.890Z,101937.75
2019-04-20T19:42:47.921Z,101932.23
2019-04-20T19:45:41.005Z,101939.89
2019-04-20T19:47:54.686Z,101938.22
2019-04-20T19:53:12.534Z,101939.75
2019-04-20T19:55:31.354Z,101944.57
2019-04-20T19:58:09.707Z,101933.16
2019-04-20T20:00:51.366Z,101941.00
2019-04-20T20:03:19.824Z,101928.44
2019-04-20T20:05:54.819Z,101939.22
2019-04-20T20:08:29.928Z,101932.92
2019-04-20T20:11:03.023Z,101929.03
2019-04-20T20:13:41.194Z,101928.95
2019-04-20T20:16:14.449Z,101930.18
2019-04-20T20:18:53.359Z,101929.05
2019-04-20T20:21:24.802Z,101928.03
2019-04-20T20:23:48.147Z,101926.31
2019-04-20T20:26:31.294Z,101933.20
2019-04-20T20:29:09.268Z,101943.30
2019-04-20T20:31:51.378Z,101937.38
2019-04-20T20:34:15.767Z,101940.88
2019-04-20T20:36:47.129Z,101938.86
2019-04-20T20:39:21.377Z,101949.66
2019-04-20T20:41:58.071Z,101942.95
2019-04-20T20:44:31.772Z,101944.45
2019-04-20T20:47:05.564Z,101949.23
2019-04-20T20:49:56.801Z,101947.33
2019-04-20T20:52:26.218Z,101947.29
2019-04-20T20:54:51.437Z,101947.48
2019-04-20T20:57:18.699Z,101953.90
2019-04-20T20:59:55.518Z,101950.94
2019-04-20T21:02:33.689Z,101956.48
2019-04-20T21:04:55.472Z,101952.44
2019-04-20T21:07:26.987Z,101950.25
2019-04-20T21:09:58.933Z,101956.16
2019-04-20T21:12:30.573Z,101955.03
2019-04-20T21:15:10.639Z,101959.19
2019-04-20T21:17:41.733Z,101967.44
2019-04-20T21:20:33.143Z,101959.88
2019-04-20T21:23:00.370Z,101957.44
2019-04-20T21:25:40.770Z,101958.53
2019-04-20T21:28:08.913Z,101955.83
2019-04-20T21:30:43.697Z,101960.76
2019-04-20T21:33:15.011Z,101966.96
2019-04-20T21:35:49.994Z,101957.62
2019-04-20T21:38:20.215Z,101957.69
2019-04-20T21:41:02.239Z,101958.64
2019-04-20T21:43:29.976Z,101957.36
2019-04-20T21:46:01.755Z,101956.81
2019-04-20T21:48:46.694Z,101956.11
2019-04-20T21:51:21.218Z,101948.34
2019-04-20T21:53:37.808Z,101951.91
2019-04-20T21:56:10.196Z,101949.44
2019-04-20T21:58:49.630Z,101952.16
2019-04-20T22:01:25.393Z,101953.83
2019-04-20T22:03:52.372Z,101955.50
2019-04-20T22:06:24.466Z,101952.66
2019-04-20T22:09:00.065Z,101956.22
2019-04-20T22:11:29.921Z,101950.20
2019-04-20T22:14:10.771Z,101961.47
2019-04-20T22:16:41.731Z,101955.74
2019-04-20T22:19:20.924Z,101958.62
2019-04-20T22:21:53.406Z,101959.89
2019-04-20T22:24:36.945Z,101954.57
2019-04-20T22:27:03.103Z,101953.43
2019-04-20T22:29:24.000Z,101963.09
2019-04-20T22:32:00.463Z,101959.05
2019-04-20T22:34:29.860Z,101953.50
2019-04-20T22:37:02.261Z,101958.25
2019-04-20T22:39:43.237Z,101958.78
2019-04-20T22:42:13.342Z,101955.25
2019-04-20T22:44:48.001Z,101952.05
2019-04-20T22:47:21.948Z,101957.38
2019-04-20T22:50:14.057Z,101946.83
2019-04-20T22:52:34.858Z,101945.71
2019-04-20T22:55:20.983Z,101948.87
2019-04-20T22:57:44.775Z,101941.83
2019-04-20T23:00:10.276Z,101944.90
2019-04-20T23:02:37.112Z,101945.59
2019-04-20T23:05:10.860Z,101953.75
2019-04-20T23:07:42.390Z,101941.95
2019-04-20T23:10:20.276Z,101940.02
2019-04-20T23:12:53.296Z,101942.93
2019-04-20T23:15:22.820Z,101938.34
2019-04-20T23:17:54.060Z,101935.79
2019-04-20T23:20:31.802Z,101930.66
2019-04-20T23:23:00.785Z,101932.39
2019-04-20T23:25:35.216Z,101931.81
2019-04-20T23:28:13.480Z,101923.03
2019-04-20T23:30:43.662Z,101924.69
2019-04-20T23:33:16.043Z,101921.37
2019-04-20T23:35:54.201Z,101920.56
2019-04-20T23:38:24.220Z,101917.25
2019-04-20T23:40:55.669Z,101915.77
2019-04-20T23:43:38.784Z,101909.69
2019-04-20T23:46:31.394Z,101908.64
2019-04-20T23:49:27.242Z,101909.95
2019-04-20T23:52:21.504Z,101899.88
2019-04-20T23:54:30.250Z,101902.97
2019-04-20T23:57:01.680Z,101906.95
2019-04-20T23:59:41.082Z,101909.48
